Time;durP1;ratioP1;P1;durP2;ratioP2;P2;SDS_P1;SDS_P2;PMS_P1;PMS_P2;Temp;Humidity;BMP_temperature;BMP_pressure;BME280_temperature;BME280_humidity;BME280_pressure;Samples;Min_cycle;Max_cycle;Signal;HPM_P1;HPM_P2
2022/03/01 00:01:12;;;;;;;1.80;1.00;;;6.00;99.90;5.80;102646.00;;;;5093852;28;20190;-70
2022/03/01 00:03:39;;;;;;;2.67;2.43;;;6.00;99.90;5.80;102646.00;;;;5094848;28;20557;-71
2022/03/01 00:06:04;;;;;;;0.97;0.97;;;6.10;99.90;6.00;102631.00;;;;5095697;28;20177;-71
2022/03/01 00:08:33;;;;;;;0.40;0.40;;;6.10;99.90;5.80;102642.00;;;;5094669;28;20175;-71
2022/03/01 00:10:59;;;;;;;6.40;3.40;;;6.20;99.90;6.10;102625.00;;;;5076537;28;20177;-71
2022/03/01 00:13:28;;;;;;;4.10;3.27;;;6.20;99.90;6.20;102583.00;;;;5094447;28;20179;-71
2022/03/01 00:15:54;;;;;;;1.53;1.53;;;6.30;99.90;6.00;102619.00;;;;5077799;28;20545;-71
2022/03/01 00:18:22;;;;;;;2.03;2.03;;;6.30;99.90;6.00;102635.00;;;;5077252;28;20180;-71
2022/03/01 00:20:48;;;;;;;0.73;0.73;;;6.30;99.90;6.00;102649.00;;;;5075492;28;20284;-72
2022/03/01 00:23:16;;;;;;;0.30;0.30;;;6.30;99.90;6.00;102654.00;;;;5076896;28;20265;-72
2022/03/01 00:25:45;;;;;;;1.83;1.73;;;6.30;99.90;6.10;102659.00;;;;5094130;28;20177;-71
2022/03/01 00:28:10;;;;;;;0.10;0.10;;;6.30;99.90;6.40;102623.00;;;;5076523;28;20181;-72
2022/03/01 00:30:41;;;;;;;0.20;0.20;;;6.40;99.90;6.20;102624.00;;;;5076639;28;20286;-72
2022/03/01 00:33:07;;;;;;;0.20;0.20;;;6.40;99.90;6.50;102668.00;;;;5092896;28;20223;-72
2022/03/01 00:35:36;;;;;;;0.40;0.40;;;6.50;99.90;6.40;102674.00;;;;5092124;28;20260;-72
2022/03/01 00:38:04;;;;;;;3.60;3.40;;;6.50;99.90;6.50;102671.00;;;;5095355;28;20179;-72
2022/03/01 00:40:32;;;;;;;0.53;0.53;;;6.50;99.90;6.40;102652.00;;;;5093563;28;20184;-72
2022/03/01 00:42:58;;;;;;;0.30;0.30;;;6.60;99.90;6.20;102684.00;;;;5094874;28;20181;-72
2022/03/01 00:45:27;;;;;;;1.00;1.00;;;6.40;99.90;6.20;102683.00;;;;5077242;28;20194;-71
2022/03/01 00:47:58;;;;;;;3.83;1.30;;;6.40;99.90;6.10;102670.00;;;;5076557;28;20185;-72
2022/03/01 00:50:24;;;;;;;0.37;0.37;;;6.30;99.90;6.00;102673.00;;;;5093639;28;20175;-71
2022/03/01 00:52:50;;;;;;;0.20;0.20;;;6.30;99.90;6.10;102674.00;;;;5076635;28;20573;-72
2022/03/01 00:55:16;;;;;;;7.13;2.73;;;6.20;99.90;6.10;102661.00;;;;5074976;28;20186;-71
2022/03/01 00:57:44;;;;;;;1.60;1.50;;;6.30;99.90;6.10;102666.00;;;;5076361;28;20179;-71
2022/03/01 01:00:12;;;;;;;0.50;0.50;;;6.40;99.90;6.30;102632.00;;;;5076817;28;20181;-71
2022/03/01 01:02:40;;;;;;;0.70;0.70;;;6.30;99.90;6.30;102669.00;;;;5092566;28;20639;-71
2022/03/01 01:05:07;;;;;;;0.30;0.30;;;6.30;99.90;6.20;102682.00;;;;5094390;28;20188;-71
2022/03/01 01:07:36;;;;;;;0.20;0.20;;;6.30;99.90;5.90;102677.00;;;;5094162;28;20186;-70
2022/03/01 01:10:03;;;;;;;0.10;0.10;;;6.20;99.90;6.10;102680.00;;;;5092950;28;20188;-71
2022/03/01 01:12:29;;;;;;;1.37;1.27;;;6.20;99.90;5.80;102675.00;;;;5076422;28;20226;-70
2022/03/01 01:14:57;;;;;;;1.30;1.30;;;6.10;99.90;5.80;102679.00;;;;5076543;28;20192;-71
2022/03/01 01:17:23;;;;;;;0.40;0.40;;;6.00;99.90;5.70;102616.00;;;;5093240;28;20176;-71
2022/03/01 01:19:49;;;;;;;0.20;0.20;;;6.00;99.90;5.80;102670.00;;;;5076146;28;20703;-70
2022/03/01 01:25:02;;;;;;;0.20;0.20;;;5.90;99.90;5.80;102673.00;;;;5093201;28;20170;-70
2022/03/01 01:27:28;;;;;;;0.80;0.80;;;5.90;99.90;5.70;102621.00;;;;5094802;28;20183;-72
2022/03/01 01:29:57;;;;;;;0.10;0.10;;;5.90;99.90;5.50;102678.00;;;;5096708;28;20230;-72
2022/03/01 01:32:26;;;;;;;0.10;0.10;;;5.80;99.90;5.60;102671.00;;;;5112706;28;20293;-73
2022/03/01 01:34:52;;;;;;;0.20;0.20;;;5.80;99.90;5.50;102658.00;;;;5113243;28;20181;-72
2022/03/01 01:37:21;;;;;;;0.40;0.40;;;5.80;99.90;5.60;102659.00;;;;5113494;28;20176;-71
2022/03/01 01:39:47;;;;;;;0.20;0.20;;;5.80;99.90;5.70;102654.00;;;;5096041;28;20568;-72
2022/03/01 01:42:13;;;;;;;0.27;0.27;;;5.80;99.90;5.70;102659.00;;;;5114667;28;20191;-71
2022/03/01 01:44:42;;;;;;;0.57;0.57;;;5.80;99.90;5.40;102655.00;;;;5095562;28;20229;-71
2022/03/01 01:47:08;;;;;;;1.50;0.30;;;5.80;99.90;5.50;102608.00;;;;5112783;28;20177;-72
2022/03/01 01:49:35;;;;;;;0.47;0.40;;;5.70;99.90;5.80;102666.00;;;;5096239;28;20275;-71
2022/03/01 01:52:03;;;;;;;0.40;0.40;;;5.80;99.90;6.30;102675.00;;;;5112443;28;20641;-72
2022/03/01 01:54:29;;;;;;;0.20;0.20;;;6.10;99.90;6.50;102623.00;;;;5113178;28;20178;-72
2022/03/01 01:57:17;;;;;;;1.33;1.17;;;6.20;99.90;6.20;102664.00;;;;5113342;28;20181;-70
2022/03/01 01:59:43;;;;;;;0.50;0.50;;;6.20;99.90;5.80;102665.00;;;;5077306;28;20692;-71
2022/03/01 02:02:14;;;;;;;2.67;2.57;;;6.00;99.90;5.90;102665.00;;;;5093302;28;20189;-72
2022/03/01 02:04:41;;;;;;;1.53;1.43;;;5.90;99.90;6.10;102666.00;;;;5075204;28;20181;-72
2022/03/01 02:07:08;;;;;;;0.40;0.40;;;5.90;99.90;6.00;102651.00;;;;5074912;28;20195;-71
2022/03/01 02:09:34;;;;;;;0.20;0.20;;;5.90;99.90;6.00;102624.00;;;;5091782;28;20206;-71
2022/03/01 02:12:02;;;;;;;1.00;1.00;;;5.90;99.90;6.10;102668.00;;;;5091602;28;20202;-71
2022/03/01 02:14:34;;;;;;;2.60;2.40;;;6.00;99.90;6.10;102659.00;;;;5091620;28;20182;-71
2022/03/01 02:17:03;;;;;;;0.77;0.77;;;5.90;99.90;6.00;102657.00;;;;5093551;28;20187;-71
2022/03/01 02:19:31;;;;;;;1.03;0.93;;;5.90;99.90;6.00;102646.00;;;;5091420;28;20194;-71
2022/03/01 02:21:59;;;;;;;0.97;0.97;;;5.90;99.90;5.90;102646.00;;;;5075644;28;20181;-71
2022/03/01 02:24:40;;;;;;;0.20;0.20;;;6.00;99.90;5.80;102655.00;;;;5075529;28;20180;-71
2022/03/01 02:27:08;;;;;;;0.30;0.30;;;5.90;99.90;5.70;102646.00;;;;5092161;28;20178;-71
2022/03/01 02:29:34;;;;;;;0.47;0.47;;;5.90;99.90;5.80;102641.00;;;;5073640;28;20635;-71
2022/03/01 02:32:04;;;;;;;1.37;1.27;;;5.90;99.90;5.50;102596.00;;;;5091532;28;20214;-71
2022/03/01 02:34:31;;;;;;;19.23;2.00;;;5.70;99.90;5.50;102634.00;;;;5091538;28;20659;-70
2022/03/01 02:36:57;;;;;;;0.30;0.30;;;5.60;99.90;5.00;102631.00;;;;5091290;28;20622;-71
2022/03/01 02:39:23;;;;;;;0.40;0.40;;;5.50;99.90;5.50;102644.00;;;;5074012;28;20717;-71
2022/03/01 02:41:52;;;;;;;0.27;0.27;;;5.50;99.90;5.30;102635.00;;;;5090495;28;20176;-71
2022/03/01 02:44:18;;;;;;;2.43;1.37;;;5.50;99.90;5.40;102631.00;;;;5092263;28;20257;-70
2022/03/01 02:46:44;;;;;;;0.40;0.40;;;5.50;99.90;5.30;102631.00;;;;5091909;28;20266;-70
2022/03/01 02:49:10;;;;;;;2.97;1.13;;;5.50;99.90;5.20;102620.00;;;;5073503;28;20198;-70
2022/03/01 02:51:37;;;;;;;0.80;0.80;;;5.40;99.90;5.20;102643.00;;;;5090109;28;20293;-70
2022/03/01 02:54:05;;;;;;;0.10;0.10;;;5.40;99.90;5.20;102632.00;;;;5091610;28;20601;-70
2022/03/01 02:56:39;;;;;;;0.20;0.20;;;5.40;99.90;5.10;102631.00;;;;5090792;28;20182;-71
2022/03/01 02:59:06;;;;;;;0.50;0.50;;;5.40;99.90;5.00;102629.00;;;;5091248;28;20264;-70
2022/03/01 03:01:31;;;;;;;3.47;3.03;;;5.30;99.90;5.10;102631.00;;;;5091709;28;20181;-70
2022/03/01 03:03:58;;;;;;;1.50;1.47;;;5.20;99.90;5.40;102624.00;;;;5092264;28;20214;-70
2022/03/01 03:06:24;;;;;;;0.20;0.20;;;5.30;99.90;5.10;102635.00;;;;5091280;28;20196;-70
2022/03/01 03:08:51;;;;;;;1.70;0.50;;;5.30;99.90;5.30;102644.00;;;;5091465;28;20262;-70
2022/03/01 03:11:17;;;;;;;0.30;0.30;;;5.20;99.90;5.10;102635.00;;;;5073043;28;20218;-71
2022/03/01 03:13:43;;;;;;;0.20;0.20;;;5.20;99.90;4.90;102639.00;;;;5091183;28;20202;-70
2022/03/01 03:16:10;;;;;;;1.33;1.33;;;5.10;99.90;4.70;102643.00;;;;5090771;28;20210;-70
2022/03/01 03:18:40;;;;;;;1.10;1.10;;;5.10;99.90;5.10;102631.00;;;;5091592;28;20174;-70
2022/03/01 03:21:10;;;;;;;3.37;3.20;;;5.10;99.90;5.00;102644.00;;;;5095146;28;20169;-71
2022/03/01 03:23:57;;;;;;;1.63;1.60;;;5.10;99.90;5.40;102602.00;;;;5093787;28;20687;-71
2022/03/01 03:26:22;;;;;;;0.67;0.67;;;5.30;99.90;5.40;102625.00;;;;5096561;28;20239;-71
2022/03/01 03:28:48;;;;;;;0.73;0.73;;;5.40;99.90;5.30;102582.00;;;;5077671;28;20754;-70
2022/03/01 03:31:17;;;;;;;0.20;0.20;;;5.50;99.90;5.10;102633.00;;;;5076422;28;20182;-71
2022/03/01 03:33:43;;;;;;;2.23;2.13;;;5.40;99.90;4.80;102615.00;;;;5093794;28;20198;-70
2022/03/01 03:36:09;;;;;;;3.60;3.50;;;5.30;99.90;5.00;102623.00;;;;5095334;28;20185;-71
2022/03/01 03:38:35;;;;;;;0.87;0.87;;;5.20;99.90;4.90;102616.00;;;;5095135;28;20201;-72
2022/03/01 03:41:01;;;;;;;7.30;5.10;;;5.20;99.90;5.00;102607.00;;;;5076222;28;20605;-72
2022/03/01 03:43:26;;;;;;;2.73;2.63;;;5.20;99.90;5.30;102598.00;;;;5093932;28;20187;-72
2022/03/01 03:45:54;;;;;;;0.20;0.20;;;5.30;99.90;5.40;102567.00;;;;5078284;28;20175;-72
2022/03/01 03:48:23;;;;;;;0.30;0.30;;;5.40;99.90;5.20;102606.00;;;;5095131;28;20183;-72
2022/03/01 03:50:48;;;;;;;1.37;1.27;;;5.40;99.90;5.40;102608.00;;;;5094763;28;20622;-71
2022/03/01 03:53:24;;;;;;;0.47;0.47;;;5.40;99.90;5.20;102609.00;;;;5076343;28;20209;-72
2022/03/01 03:56:13;;;;;;;0.97;0.97;;;5.40;99.90;4.80;102612.00;;;;5028804;28;20255;-71
2022/03/01 03:58:42;;;;;;;0.30;0.30;;;5.20;99.90;4.80;102601.00;;;;5054352;28;20240;-71
2022/03/01 04:01:08;;;;;;;0.93;0.93;;;5.20;99.90;5.40;102602.00;;;;5054204;28;20184;-72
2022/03/01 04:03:39;;;;;;;1.00;1.00;;;5.40;99.90;5.60;102613.00;;;;5037152;28;20201;-71
2022/03/01 04:06:07;;;;;;;2.13;1.87;;;5.60;99.90;5.60;102618.00;;;;5053327;28;20174;-71
2022/03/01 04:08:34;;;;;;;1.40;1.40;;;5.70;99.90;5.60;102618.00;;;;5037853;28;20276;-71
2022/03/01 04:11:00;;;;;;;1.27;1.17;;;5.70;99.90;5.50;102620.00;;;;5053331;28;20203;-71
2022/03/01 04:13:26;;;;;;;0.20;0.20;;;5.70;99.90;5.60;102624.00;;;;5037636;28;20177;-71
2022/03/01 04:15:53;;;;;;;0.20;0.20;;;5.70;99.90;6.20;102639.00;;;;5054118;28;20170;-71
2022/03/01 04:18:18;;;;;;;0.20;0.20;;;6.00;99.90;6.50;102635.00;;;;5035997;28;20756;-71
2022/03/01 04:20:44;;;;;;;0.73;0.73;;;6.10;99.90;6.80;102627.00;;;;5055292;28;20270;-71
2022/03/01 04:23:11;;;;;;;0.20;0.20;;;6.50;99.90;6.50;102632.00;;;;5054219;28;20177;-71
2022/03/01 04:25:37;;;;;;;0.40;0.40;;;6.40;99.90;6.20;102621.00;;;;5053331;28;20188;-71
2022/03/01 04:28:03;;;;;;;2.57;2.37;;;6.20;99.90;6.00;102578.00;;;;5052549;28;20185;-71
2022/03/01 04:30:32;;;;;;;0.20;0.20;;;6.00;99.90;6.00;102603.00;;;;5054972;28;20180;-72
2022/03/01 04:33:01;;;;;;;0.10;0.10;;;6.00;99.90;5.80;102621.00;;;;5054564;28;20266;-72
2022/03/01 04:35:36;;;;;;;5.13;4.80;;;5.90;99.90;5.80;102587.00;;;;5070476;28;20547;-73
2022/03/01 04:38:05;;;;;;;1.57;1.47;;;6.00;99.90;5.90;102616.00;;;;5053911;28;20216;-72
2022/03/01 04:40:31;;;;;;;0.23;0.23;;;6.00;99.90;6.00;102621.00;;;;5053733;28;20183;-72
2022/03/01 04:42:57;;;;;;;0.20;0.20;;;6.00;99.90;5.70;102617.00;;;;5052703;28;20204;-72
2022/03/01 04:45:23;;;;;;;0.10;0.10;;;5.90;99.90;5.60;102566.00;;;;5054895;28;20193;-72
2022/03/01 04:47:49;;;;;;;0.20;0.20;;;5.90;99.90;5.70;102608.00;;;;5037146;28;20322;-73
2022/03/01 04:50:15;;;;;;;0.73;0.67;;;5.80;99.90;5.80;102614.00;;;;5037292;28;20174;-73
2022/03/01 04:52:41;;;;;;;0.30;0.30;;;5.90;99.90;6.00;102616.00;;;;5052998;28;20205;-71
2022/03/01 04:55:08;;;;;;;0.20;0.20;;;6.00;99.90;6.00;102558.00;;;;5036703;28;20201;-71
2022/03/01 04:57:35;;;;;;;1.07;1.07;;;6.00;99.90;6.10;102601.00;;;;5036711;28;20188;-72
2022/03/01 05:00:02;;;;;;;0.70;0.70;;;6.00;99.90;6.10;102605.00;;;;5053636;28;20330;-71
2022/03/01 05:02:28;;;;;;;0.93;0.93;;;6.10;99.90;5.90;102600.00;;;;5065736;28;20554;-71
2022/03/01 05:04:57;;;;;;;1.80;1.10;;;6.10;99.90;6.20;102585.00;;;;5056457;28;20195;-71
2022/03/01 05:07:25;;;;;;;3.77;3.40;;;6.10;99.90;5.60;102590.00;;;;5056108;28;20544;-71
2022/03/01 05:09:51;;;;;;;0.27;0.27;;;6.00;99.90;5.90;102541.00;;;;5055106;28;20781;-71
2022/03/01 05:12:19;;;;;;;1.03;0.73;;;6.00;99.90;6.10;102582.00;;;;5055035;28;20227;-71
2022/03/01 05:14:45;;;;;;;1.17;1.10;;;6.20;99.90;5.90;102579.00;;;;5073057;28;20177;-71
2022/03/01 05:17:11;;;;;;;1.13;1.13;;;6.10;99.90;5.60;102571.00;;;;5056376;28;20198;-71
2022/03/01 05:19:38;;;;;;;1.37;0.67;;;6.00;99.90;5.90;102581.00;;;;5071089;28;20586;-71
2022/03/01 05:22:04;;;;;;;0.80;0.80;;;6.00;99.90;5.80;102582.00;;;;5072180;28;20189;-70
2022/03/01 05:24:32;;;;;;;1.17;1.17;;;6.00;99.90;5.80;102579.00;;;;5072687;28;20187;-70
2022/03/01 05:26:58;;;;;;;0.40;0.40;;;6.10;99.90;5.70;102587.00;;;;5072925;28;20158;-71
2022/03/01 05:29:24;;;;;;;1.27;1.27;;;5.90;99.90;5.70;102586.00;;;;5070883;28;20184;-71
2022/03/01 05:31:52;;;;;;;2.70;2.60;;;5.90;99.90;5.80;102585.00;;;;5072106;28;20575;-71
2022/03/01 05:34:18;;;;;;;0.47;0.47;;;6.00;99.90;5.80;102570.00;;;;5072796;28;20184;-71
2022/03/01 05:36:49;;;;;;;0.30;0.30;;;6.00;99.90;6.00;102594.00;;;;5056196;28;20184;-71
2022/03/01 05:39:17;;;;;;;3.07;2.97;;;6.10;99.90;5.90;102583.00;;;;5053992;28;20527;-71
2022/03/01 05:41:45;;;;;;;0.50;0.50;;;6.10;99.90;6.10;102585.00;;;;5035328;28;20659;-71
2022/03/01 05:44:11;;;;;;;1.43;1.33;;;6.20;99.90;6.00;102574.00;;;;5036444;28;20188;-71
2022/03/01 05:46:37;;;;;;;0.60;0.60;;;6.10;99.90;6.10;102570.00;;;;5035214;28;20235;-71
2022/03/01 05:49:03;;;;;;;5.40;3.40;;;6.10;99.90;5.60;102573.00;;;;5035350;28;20430;-71
2022/03/01 05:51:30;;;;;;;2.50;2.40;;;6.10;99.90;5.90;102572.00;;;;5051262;28;20196;-72
2022/03/01 05:53:55;;;;;;;0.60;0.60;;;6.10;99.90;5.90;102579.00;;;;5033530;28;20189;-71
2022/03/01 05:56:21;;;;;;;1.13;1.03;;;6.10;99.90;5.70;102559.00;;;;5035367;28;20188;-71
2022/03/01 05:58:48;;;;;;;0.20;0.20;;;6.00;99.90;5.70;102574.00;;;;5051591;28;20611;-71
2022/03/01 06:01:15;;;;;;;0.20;0.20;;;5.90;99.90;5.80;102582.00;;;;5051636;28;20714;-71
2022/03/01 06:03:41;;;;;;;2.57;2.33;;;6.00;99.90;5.70;102565.00;;;;5035448;28;20295;-71
2022/03/01 06:06:07;;;;;;;0.37;0.37;;;5.90;99.90;5.50;102570.00;;;;5035766;28;20696;-70
2022/03/01 06:08:33;;;;;;;0.20;0.20;;;5.80;99.90;5.50;102547.00;;;;5034412;28;20231;-71
2022/03/01 06:10:58;;;;;;;4.40;4.00;;;5.80;99.90;5.50;102556.00;;;;5034787;28;20188;-70
2022/03/01 06:13:27;;;;;;;0.50;0.50;;;5.80;99.90;5.50;102545.00;;;;5041048;28;20261;-71
2022/03/01 06:15:53;;;;;;;0.60;0.60;;;5.80;99.90;6.10;102578.00;;;;5055117;28;20680;-71
2022/03/01 06:18:19;;;;;;;1.27;1.17;;;5.90;99.90;6.40;102583.00;;;;5073412;28;20187;-71
2022/03/01 06:20:48;;;;;;;0.20;0.20;;;6.20;99.90;6.00;102583.00;;;;5070170;28;20196;-71
2022/03/01 06:23:19;;;;;;;0.50;0.50;;;6.20;99.90;5.80;102537.00;;;;5071663;28;20183;-71
2022/03/01 06:25:45;;;;;;;0.20;0.20;;;6.00;99.90;6.20;102581.00;;;;5071593;28;20191;-71
2022/03/01 06:28:11;;;;;;;0.20;0.20;;;6.10;99.90;5.50;102593.00;;;;5071071;28;20224;-71
2022/03/01 06:30:38;;;;;;;0.53;0.53;;;6.00;99.90;6.00;102593.00;;;;5054566;28;20225;-71
2022/03/01 06:33:04;;;;;;;2.67;2.53;;;6.00;99.90;5.80;102596.00;;;;5071540;28;20673;-70
2022/03/01 06:35:30;;;;;;;0.50;0.50;;;5.90;99.90;6.00;102608.00;;;;5072337;28;20175;-70
2022/03/01 06:37:57;;;;;;;0.20;0.20;;;6.00;99.90;5.70;102619.00;;;;5071426;28;20163;-69
2022/03/01 06:40:23;;;;;;;0.63;0.63;;;6.00;99.90;5.70;102616.00;;;;5070920;28;20211;-70
2022/03/01 06:42:50;;;;;;;0.30;0.30;;;5.90;99.90;5.80;102626.00;;;;5072808;28;20214;-71
2022/03/01 06:45:16;;;;;;;0.20;0.20;;;6.00;99.90;6.10;102645.00;;;;5071510;28;20178;-71
2022/03/01 06:47:42;;;;;;;2.30;2.20;;;6.00;99.90;6.60;102593.00;;;;5070675;28;20268;-71
2022/03/01 06:50:10;;;;;;;0.20;0.20;;;6.30;99.90;6.50;102633.00;;;;5055432;28;20187;-71
2022/03/01 06:52:37;;;;;;;0.37;0.37;;;6.50;99.90;5.80;102642.00;;;;5054569;28;20582;-71
2022/03/01 06:55:06;;;;;;;0.30;0.30;;;6.30;99.90;6.30;102628.00;;;;5074961;28;20173;-71
2022/03/01 06:57:33;;;;;;;0.20;0.20;;;6.30;99.90;6.20;102631.00;;;;5058314;28;20181;-71
2022/03/01 07:00:01;;;;;;;0.20;0.20;;;6.30;99.90;6.40;102631.00;;;;5075797;28;20184;-70
2022/03/01 07:02:28;;;;;;;0.20;0.20;;;6.40;99.90;6.20;102620.00;;;;5075597;28;20627;-70
2022/03/01 07:04:55;;;;;;;0.20;0.20;;;6.20;99.90;6.10;102628.00;;;;5075546;28;20184;-70
2022/03/01 07:07:22;;;;;;;0.20;0.20;;;6.20;99.90;6.40;102592.00;;;;5074573;28;20183;-70
2022/03/01 07:10:30;;;;;;;0.87;0.87;;;6.20;99.90;6.20;102641.00;;;;5074458;28;20293;-70
2022/03/01 07:13:19;;;;;;;1.63;1.53;;;6.40;99.90;5.90;102643.00;;;;5076812;28;20208;-71
2022/03/01 07:15:45;;;;;;;6.00;3.90;;;6.10;99.90;6.40;102601.00;;;;5074760;28;20170;-70
2022/03/01 07:18:11;;;;;;;0.30;0.30;;;6.30;99.90;6.30;102576.00;;;;5058312;28;20653;-70
2022/03/01 07:20:37;;;;;;;0.30;0.30;;;6.30;99.90;5.60;102617.00;;;;5074069;28;20184;-71
2022/03/01 07:23:07;;;;;;;1.07;1.07;;;6.20;99.90;6.00;102627.00;;;;5075379;28;20184;-71
2022/03/01 07:25:35;;;;;;;1.60;1.47;;;6.00;99.90;5.70;102630.00;;;;5075270;28;20181;-70
2022/03/01 07:28:01;;;;;;;0.40;0.40;;;6.00;99.90;5.70;102615.00;;;;5057422;28;20189;-70
2022/03/01 07:30:27;;;;;;;0.20;0.20;;;6.00;99.90;6.50;102650.00;;;;5075326;28;20186;-71
2022/03/01 07:32:56;;;;;;;0.10;0.10;;;6.20;99.90;6.20;102632.00;;;;5074775;28;20208;-70
2022/03/01 07:35:24;;;;;;;0.43;0.43;;;6.30;99.90;6.60;102594.00;;;;5076069;28;20191;-71
2022/03/01 07:37:51;;;;;;;0.70;0.70;;;6.50;99.90;6.50;102651.00;;;;5075480;28;20175;-71
2022/03/01 07:40:19;;;;;;;3.20;1.17;;;6.50;99.90;6.00;102652.00;;;;5075355;28;20194;-71
2022/03/01 07:42:46;;;;;;;0.40;0.40;;;6.40;99.90;6.50;102659.00;;;;5074071;28;20188;-70
2022/03/01 07:45:12;;;;;;;1.30;0.77;;;6.50;99.90;6.80;102647.00;;;;5075232;28;20174;-71
2022/03/01 07:47:38;;;;;;;0.20;0.20;;;6.60;99.90;6.70;102650.00;;;;5057819;28;20231;-71
2022/03/01 07:50:06;;;;;;;0.30;0.30;;;6.70;99.90;6.70;102651.00;;;;5074374;28;20260;-70
2022/03/01 07:52:32;;;;;;;0.40;0.40;;;6.70;99.90;6.70;102652.00;;;;5074979;28;20258;-71
2022/03/01 07:54:58;;;;;;;4.13;2.83;;;6.80;99.90;6.70;102657.00;;;;5058127;28;20192;-71
2022/03/01 07:57:41;;;;;;;1.03;0.60;;;6.80;99.90;6.60;102643.00;;;;5073398;28;20525;-71
2022/03/01 08:00:09;;;;;;;0.20;0.20;;;6.90;99.90;6.50;102660.00;;;;5058066;28;20189;-70
2022/03/01 08:02:39;;;;;;;0.57;0.57;;;6.80;99.90;6.70;102661.00;;;;5074547;28;20189;-70
2022/03/01 08:05:07;;;;;;;2.20;1.83;;;6.90;99.90;7.40;102661.00;;;;5073890;28;20197;-70
2022/03/01 08:07:33;;;;;;;1.30;1.20;;;7.30;99.90;7.60;102623.00;;;;5074206;28;20227;-70
2022/03/01 08:10:00;;;;;;;0.20;0.20;;;7.40;99.90;7.40;102651.00;;;;5073365;28;20227;-70
2022/03/01 08:12:28;;;;;;;0.50;0.50;;;7.40;99.90;7.20;102627.00;;;;5057568;28;20215;-70
2022/03/01 08:14:54;;;;;;;0.23;0.23;;;7.40;99.90;7.20;102660.00;;;;5074119;28;20186;-70
2022/03/01 08:17:22;;;;;;;15.30;14.37;;;7.40;99.90;7.30;102613.00;;;;5074460;28;20316;-69
2022/03/01 08:19:51;;;;;;;2.13;0.73;;;7.50;99.90;7.80;102672.00;;;;5074199;28;20177;-69
2022/03/01 08:22:19;;;;;;;0.30;0.30;;;7.60;99.90;7.60;102658.00;;;;5074216;28;20182;-70
2022/03/01 08:24:45;;;;;;;0.80;0.77;;;7.60;99.90;8.20;102668.00;;;;5057741;28;20643;-70
2022/03/01 08:27:11;;;;;;;0.53;0.53;;;7.80;99.90;7.60;102650.00;;;;5057729;28;20209;-70
2022/03/01 08:29:37;;;;;;;1.07;1.00;;;7.90;99.90;7.70;102667.00;;;;5074135;28;20183;-70
2022/03/01 08:32:46;;;;;;;0.97;0.97;;;7.90;99.90;7.20;102643.00;;;;5074094;28;20217;-70
2022/03/01 08:35:12;;;;;;;5.90;5.63;;;7.60;99.90;7.00;102663.00;;;;5057240;28;20706;-70
2022/03/01 08:37:38;;;;;;;1.33;1.33;;;7.40;99.90;7.80;102678.00;;;;5057179;28;20193;-70
2022/03/01 08:40:05;;;;;;;0.33;0.33;;;7.60;99.90;7.20;102685.00;;;;5057467;28;20644;-70
2022/03/01 08:42:31;;;;;;;2.13;2.03;;;7.50;99.90;7.70;102675.00;;;;5072955;28;20202;-70
2022/03/01 08:44:57;;;;;;;3.20;3.00;;;7.60;99.90;7.70;102680.00;;;;5056743;28;20290;-71
2022/03/01 08:47:25;;;;;;;1.20;1.20;;;7.80;99.90;8.60;102676.00;;;;5056162;28;20269;-70
2022/03/01 08:49:53;;;;;;;0.60;0.60;;;8.20;99.90;8.60;102677.00;;;;5073058;28;20664;-70
2022/03/01 08:52:19;;;;;;;5.20;1.83;;;8.30;99.90;7.90;102690.00;;;;5074400;28;20559;-70
2022/03/01 08:54:45;;;;;;;1.10;1.10;;;8.10;99.90;7.00;102642.00;;;;5075208;28;20625;-70
2022/03/01 08:57:12;;;;;;;1.03;1.03;;;7.70;99.90;7.50;102685.00;;;;5056900;28;20611;-70
2022/03/01 08:59:37;;;;;;;4.60;2.20;;;7.70;99.90;7.40;102695.00;;;;5072852;28;20852;-70
2022/03/01 09:02:04;;;;;;;1.37;1.30;;;7.60;99.90;7.90;102644.00;;;;5055790;28;20290;-70
2022/03/01 09:04:30;;;;;;;0.83;0.83;;;7.70;99.90;7.90;102691.00;;;;5074817;28;20568;-70
2022/03/01 09:07:03;;;;;;;0.37;0.37;;;7.80;99.90;8.00;102698.00;;;;5056485;28;20235;-71
2022/03/01 09:09:31;;;;;;;1.30;1.00;;;8.00;99.90;8.20;102704.00;;;;5073815;28;20254;-70
2022/03/01 09:11:58;;;;;;;3.37;1.97;;;8.10;99.90;7.70;102697.00;;;;5072217;28;20203;-70
2022/03/01 09:14:24;;;;;;;3.70;3.33;;;8.10;99.90;8.30;102697.00;;;;5056440;28;20205;-70
2022/03/01 09:16:53;;;;;;;1.53;0.60;;;8.20;99.90;8.60;102699.00;;;;5054997;28;20224;-70
2022/03/01 09:19:20;;;;;;;0.40;0.40;;;8.40;99.90;8.40;102699.00;;;;5056429;28;20204;-70
2022/03/01 09:21:51;;;;;;;1.00;0.90;;;8.40;99.90;8.50;102693.00;;;;5072885;28;20764;-65
2022/03/01 09:24:17;;;;;;;1.23;1.23;;;8.40;99.90;8.50;102686.00;;;;5074359;28;20262;-74
2022/03/01 09:26:48;;;;;;;0.40;0.40;;;8.50;99.90;7.80;102686.00;;;;5056406;28;20259;-72
2022/03/01 09:29:17;;;;;;;0.20;0.20;;;8.20;99.90;7.70;102695.00;;;;5056171;28;20193;-73
2022/03/01 09:31:43;;;;;;;0.83;0.83;;;7.90;99.90;8.00;102697.00;;;;5073753;28;20238;-73
2022/03/01 09:34:11;;;;;;;0.73;0.73;;;7.90;99.90;8.30;102710.00;;;;5073216;28;20186;-73
2022/03/01 09:36:37;;;;;;;0.77;0.77;;;8.10;99.90;8.00;102717.00;;;;5057100;28;20209;-70
2022/03/01 09:39:03;;;;;;;1.70;0.50;;;8.10;99.90;8.30;102716.00;;;;5073447;28;20177;-75
2022/03/01 09:41:33;;;;;;;0.23;0.23;;;8.30;99.90;7.90;102709.00;;;;5055494;28;20188;-74
2022/03/01 09:44:01;;;;;;;0.70;0.70;;;8.20;99.90;7.80;102676.00;;;;5072198;28;20178;-75
2022/03/01 09:46:28;;;;;;;2.07;1.67;;;8.10;99.90;8.20;102715.00;;;;5071679;28;20282;-65
2022/03/01 09:48:57;;;;;;;0.50;0.50;;;8.00;99.90;8.30;102716.00;;;;5070990;28;20246;-73
2022/03/01 09:51:25;;;;;;;0.37;0.37;;;8.30;99.90;9.10;102696.00;;;;5054770;28;20692;-73
2022/03/01 09:53:53;;;;;;;0.17;0.17;;;8.60;99.90;8.60;102710.00;;;;5051991;28;20199;-72
2022/03/01 09:56:19;;;;;;;2.20;0.53;;;8.70;99.90;8.90;102707.00;;;;5060883;28;20255;-71
2022/03/01 09:58:50;;;;;;;0.30;0.30;;;8.70;99.90;8.20;102720.00;;;;5054295;28;20634;-70
2022/03/01 10:01:17;;;;;;;1.43;1.33;;;8.70;99.90;8.00;102669.00;;;;5055521;28;20199;-71
2022/03/01 10:03:48;;;;;;;0.90;0.30;;;8.40;99.90;9.00;102721.00;;;;5073394;28;20539;-71
2022/03/01 10:06:16;;;;;;;0.30;0.30;;;8.60;99.90;8.20;102717.00;;;;5055123;28;20650;-71
2022/03/01 10:08:42;;;;;;;1.97;1.80;;;8.60;99.90;8.40;102724.00;;;;5072387;28;20258;-71
2022/03/01 10:11:10;;;;;;;0.20;0.20;;;8.40;99.90;9.00;102718.00;;;;5054907;28;20187;-71
2022/03/01 10:13:38;;;;;;;2.37;0.50;;;8.60;99.90;8.60;102709.00;;;;5070549;28;20232;-72
2022/03/01 10:16:14;;;;;;;1.63;1.63;;;8.80;99.90;8.00;102727.00;;;;5072177;28;20183;-71
2022/03/01 10:18:57;;;;;;;0.30;0.30;;;8.40;99.90;7.80;102724.00;;;;5072185;28;20180;-71
2022/03/01 10:33:16;;;;;;;0.50;0.50;;;7.70;99.90;7.40;102699.00;;;;5070688;28;20549;-69
2022/03/01 10:35:55;;;;;;;0.60;0.60;;;7.60;99.90;7.50;102717.00;;;;5049316;28;20190;-69
2022/03/01 10:38:24;;;;;;;0.50;0.50;;;7.70;99.90;8.40;102711.00;;;;5065967;28;20542;-74
2022/03/01 10:40:58;;;;;;;1.17;1.17;;;8.00;99.90;8.70;102714.00;;;;5065544;28;20163;-69
2022/03/01 10:43:27;;;;;;;0.40;0.40;;;8.40;99.90;8.50;102703.00;;;;5065991;28;20202;-68
2022/03/01 10:45:53;;;;;;;0.27;0.27;;;8.40;99.90;8.00;102720.00;;;;5050598;28;20183;-66
2022/03/01 10:48:37;;;;;;;0.40;0.40;;;8.30;99.90;7.90;102684.00;;;;5050178;28;20184;-74
2022/03/01 10:51:09;;;;;;;0.87;0.87;;;8.20;99.90;8.20;102717.00;;;;5048455;28;20200;-74
2022/03/01 10:53:40;;;;;;;1.60;1.33;;;8.30;99.90;8.50;102619.00;;;;5046891;28;20309;-74
2022/03/01 10:56:13;;;;;;;0.70;0.70;;;8.40;99.90;8.70;102717.00;;;;5042715;28;20201;-73
2022/03/01 10:58:42;;;;;;;1.37;1.37;;;8.60;99.90;9.10;102716.00;;;;5028728;28;20635;-73
2022/03/01 11:01:11;;;;;;;2.13;1.50;;;8.90;99.90;8.40;102707.00;;;;5029020;28;20289;-74
2022/03/01 11:03:38;;;;;;;0.40;0.40;;;8.70;99.90;7.80;102689.00;;;;5030014;28;20183;-73
2022/03/01 11:06:05;;;;;;;0.93;0.93;;;8.30;99.90;8.30;102695.00;;;;5028768;28;20211;-74
2022/03/01 11:08:37;;;;;;;6.03;2.17;;;8.40;99.90;8.60;102688.00;;;;5030054;28;20180;-63
2022/03/01 11:11:07;;;;;;;0.80;0.67;;;8.50;99.90;8.60;102677.00;;;;5044567;28;20187;-75
2022/03/01 11:13:37;;;;;;;1.80;1.70;;;8.70;99.90;8.70;102640.00;;;;5048389;28;20223;-75
2022/03/01 11:16:27;;;;;;;1.70;1.60;;;8.80;99.90;9.40;102655.00;;;;5046248;28;20207;-77
2022/03/01 11:19:28;;;;;;;11.10;3.57;;;9.10;99.90;8.90;102683.00;;;;5046603;28;20192;-76
2022/03/01 11:21:54;;;;;;;0.80;0.80;;;9.10;99.90;9.10;102683.00;;;;5054473;28;20263;-75